sensor_id;sensor_type;location;lat;lon;timestamp;P1;durP1;ratioP1;P2;durP2;ratioP2
45408;SDS011;31162;51.076;3.784;2023-08-06T00:00:24;15.63;;;8.80;;
45408;SDS011;31162;51.076;3.784;2023-08-06T00:02:50;15.35;;;9.38;;
45408;SDS011;31162;51.076;3.784;2023-08-06T00:05:16;15.85;;;9.07;;
45408;SDS011;31162;51.076;3.784;2023-08-06T00:07:46;16.92;;;8.65;;
45408;SDS011;31162;51.076;3.784;2023-08-06T00:10:12;15.13;;;9.35;;
45408;SDS011;31162;51.076;3.784;2023-08-06T00:12:38;17.10;;;9.07;;
45408;SDS011;31162;51.076;3.784;2023-08-06T00:15:04;20.25;;;9.05;;
45408;SDS011;31162;51.076;3.784;2023-08-06T00:17:30;17.15;;;9.80;;
45408;SDS011;31162;51.076;3.784;2023-08-06T00:19:55;12.77;;;8.98;;
45408;SDS011;31162;51.076;3.784;2023-08-06T00:22:21;17.83;;;9.68;;
45408;SDS011;31162;51.076;3.784;2023-08-06T00:24:46;16.95;;;8.65;;
45408;SDS011;31162;51.076;3.784;2023-08-06T00:27:12;15.23;;;9.52;;
45408;SDS011;31162;51.076;3.784;2023-08-06T00:29:38;18.88;;;10.10;;
45408;SDS011;31162;51.076;3.784;2023-08-06T00:32:03;16.33;;;10.52;;
45408;SDS011;31162;51.076;3.784;2023-08-06T00:34:29;20.52;;;11.18;;
45408;SDS011;31162;51.076;3.784;2023-08-06T00:36:55;19.58;;;11.25;;
45408;SDS011;31162;51.076;3.784;2023-08-06T00:39:20;22.38;;;11.70;;
45408;SDS011;31162;51.076;3.784;2023-08-06T00:41:46;17.05;;;11.32;;
45408;SDS011;31162;51.076;3.784;2023-08-06T00:44:12;21.42;;;13.15;;
45408;SDS011;31162;51.076;3.784;2023-08-06T00:46:37;18.20;;;11.68;;
45408;SDS011;31162;51.076;3.784;2023-08-06T00:49:06;19.85;;;12.68;;
45408;SDS011;31162;51.076;3.784;2023-08-06T00:51:31;20.98;;;11.50;;
45408;SDS011;31162;51.076;3.784;2023-08-06T00:53:57;22.45;;;11.65;;
45408;SDS011;31162;51.076;3.784;2023-08-06T00:56:23;18.20;;;11.52;;
45408;SDS011;31162;51.076;3.784;2023-08-06T00:58:50;22.23;;;12.38;;
45408;SDS011;31162;51.076;3.784;2023-08-06T01:01:16;22.70;;;11.68;;
45408;SDS011;31162;51.076;3.784;2023-08-06T01:03:41;18.05;;;12.20;;
45408;SDS011;31162;51.076;3.784;2023-08-06T01:06:07;19.05;;;11.93;;
45408;SDS011;31162;51.076;3.784;2023-08-06T01:11:22;20.38;;;11.82;;
45408;SDS011;31162;51.076;3.784;2023-08-06T01:17:13;21.13;;;12.27;;
45408;SDS011;31162;51.076;3.784;2023-08-06T01:19:40;17.98;;;12.43;;
45408;SDS011;31162;51.076;3.784;2023-08-06T01:22:05;24.40;;;13.38;;
45408;SDS011;31162;51.076;3.784;2023-08-06T01:24:31;23.42;;;13.35;;
45408;SDS011;31162;51.076;3.784;2023-08-06T01:26:59;22.05;;;14.30;;
45408;SDS011;31162;51.076;3.784;2023-08-06T01:29:34;24.83;;;16.30;;
45408;SDS011;31162;51.076;3.784;2023-08-06T01:32:04;24.48;;;16.73;;
45408;SDS011;31162;51.076;3.784;2023-08-06T01:34:32;29.60;;;18.33;;
45408;SDS011;31162;51.076;3.784;2023-08-06T01:37:00;28.25;;;19.15;;
45408;SDS011;31162;51.076;3.784;2023-08-06T01:39:27;33.15;;;21.75;;
45408;SDS011;31162;51.076;3.784;2023-08-06T01:41:52;36.65;;;24.70;;
45408;SDS011;31162;51.076;3.784;2023-08-06T01:44:18;32.22;;;23.00;;
45408;SDS011;31162;51.076;3.784;2023-08-06T01:46:44;29.95;;;19.35;;
45408;SDS011;31162;51.076;3.784;2023-08-06T01:49:09;24.60;;;16.33;;
45408;SDS011;31162;51.076;3.784;2023-08-06T01:51:35;23.80;;;14.73;;
45408;SDS011;31162;51.076;3.784;2023-08-06T01:54:01;24.60;;;14.23;;
45408;SDS011;31162;51.076;3.784;2023-08-06T01:56:26;25.60;;;13.02;;
45408;SDS011;31162;51.076;3.784;2023-08-06T01:58:52;15.65;;;9.57;;
45408;SDS011;31162;51.076;3.784;2023-08-06T02:01:18;13.27;;;7.45;;
45408;SDS011;31162;51.076;3.784;2023-08-06T02:03:43;8.63;;;6.05;;
45408;SDS011;31162;51.076;3.784;2023-08-06T02:06:09;9.70;;;6.05;;
45408;SDS011;31162;51.076;3.784;2023-08-06T02:08:35;8.13;;;6.13;;
45408;SDS011;31162;51.076;3.784;2023-08-06T02:11:00;8.10;;;6.88;;
45408;SDS011;31162;51.076;3.784;2023-08-06T02:13:27;9.00;;;6.82;;
45408;SDS011;31162;51.076;3.784;2023-08-06T02:15:53;8.77;;;7.20;;
45408;SDS011;31162;51.076;3.784;2023-08-06T02:18:18;8.63;;;5.80;;
45408;SDS011;31162;51.076;3.784;2023-08-06T02:20:44;12.13;;;4.82;;
45408;SDS011;31162;51.076;3.784;2023-08-06T02:23:23;5.50;;;3.80;;
45408;SDS011;31162;51.076;3.784;2023-08-06T02:25:56;10.07;;;3.70;;
45408;SDS011;31162;51.076;3.784;2023-08-06T02:28:31;4.53;;;2.50;;
45408;SDS011;31162;51.076;3.784;2023-08-06T02:30:57;4.13;;;2.10;;
45408;SDS011;31162;51.076;3.784;2023-08-06T02:33:23;6.07;;;2.10;;
45408;SDS011;31162;51.076;3.784;2023-08-06T02:35:49;8.18;;;2.13;;
45408;SDS011;31162;51.076;3.784;2023-08-06T02:38:14;8.55;;;2.60;;
45408;SDS011;31162;51.076;3.784;2023-08-06T02:40:46;8.00;;;2.65;;
45408;SDS011;31162;51.076;3.784;2023-08-06T02:43:14;11.88;;;3.85;;
45408;SDS011;31162;51.076;3.784;2023-08-06T02:45:40;8.63;;;4.68;;
45408;SDS011;31162;51.076;3.784;2023-08-06T02:48:05;10.60;;;4.57;;
45408;SDS011;31162;51.076;3.784;2023-08-06T02:50:35;11.18;;;5.47;;
45408;SDS011;31162;51.076;3.784;2023-08-06T02:53:04;8.98;;;4.53;;
45408;SDS011;31162;51.076;3.784;2023-08-06T02:55:29;12.15;;;5.00;;
45408;SDS011;31162;51.076;3.784;2023-08-06T02:57:55;10.38;;;4.72;;
45408;SDS011;31162;51.076;3.784;2023-08-06T03:00:21;10.00;;;4.80;;
45408;SDS011;31162;51.076;3.784;2023-08-06T03:02:46;10.27;;;5.13;;
45408;SDS011;31162;51.076;3.784;2023-08-06T03:05:12;10.10;;;5.70;;
45408;SDS011;31162;51.076;3.784;2023-08-06T03:07:38;12.00;;;5.88;;
45408;SDS011;31162;51.076;3.784;2023-08-06T03:10:03;13.60;;;6.03;;
45408;SDS011;31162;51.076;3.784;2023-08-06T03:12:29;13.88;;;6.53;;
45408;SDS011;31162;51.076;3.784;2023-08-06T03:14:55;12.35;;;6.40;;
45408;SDS011;31162;51.076;3.784;2023-08-06T03:17:20;12.25;;;6.25;;
45408;SDS011;31162;51.076;3.784;2023-08-06T03:19:46;11.00;;;6.35;;
45408;SDS011;31162;51.076;3.784;2023-08-06T03:22:12;9.88;;;6.10;;
45408;SDS011;31162;51.076;3.784;2023-08-06T03:24:37;9.57;;;7.68;;
45408;SDS011;31162;51.076;3.784;2023-08-06T03:27:03;13.15;;;8.73;;
45408;SDS011;31162;51.076;3.784;2023-08-06T03:29:29;14.23;;;9.00;;
45408;SDS011;31162;51.076;3.784;2023-08-06T03:31:54;11.90;;;9.07;;
45408;SDS011;31162;51.076;3.784;2023-08-06T03:34:20;10.00;;;7.45;;
45408;SDS011;31162;51.076;3.784;2023-08-06T03:36:46;11.60;;;7.70;;
45408;SDS011;31162;51.076;3.784;2023-08-06T03:39:11;11.35;;;8.15;;
45408;SDS011;31162;51.076;3.784;2023-08-06T03:41:38;14.00;;;9.55;;
45408;SDS011;31162;51.076;3.784;2023-08-06T03:44:04;12.40;;;7.82;;
45408;SDS011;31162;51.076;3.784;2023-08-06T03:46:30;10.50;;;7.10;;
45408;SDS011;31162;51.076;3.784;2023-08-06T03:48:58;17.08;;;9.65;;
45408;SDS011;31162;51.076;3.784;2023-08-06T03:51:28;14.50;;;10.35;;
45408;SDS011;31162;51.076;3.784;2023-08-06T03:53:53;14.95;;;11.75;;
45408;SDS011;31162;51.076;3.784;2023-08-06T03:56:19;17.92;;;12.52;;
45408;SDS011;31162;51.076;3.784;2023-08-06T03:58:45;22.23;;;13.05;;
45408;SDS011;31162;51.076;3.784;2023-08-06T04:01:11;16.58;;;10.55;;
45408;SDS011;31162;51.076;3.784;2023-08-06T04:03:36;16.35;;;9.07;;
45408;SDS011;31162;51.076;3.784;2023-08-06T04:06:05;18.80;;;7.50;;
45408;SDS011;31162;51.076;3.784;2023-08-06T04:08:32;18.55;;;7.13;;
45408;SDS011;31162;51.076;3.784;2023-08-06T04:10:57;16.70;;;7.07;;
45408;SDS011;31162;51.076;3.784;2023-08-06T04:13:23;19.33;;;7.32;;
45408;SDS011;31162;51.076;3.784;2023-08-06T04:15:49;17.08;;;7.32;;
45408;SDS011;31162;51.076;3.784;2023-08-06T04:18:15;15.48;;;6.25;;
45408;SDS011;31162;51.076;3.784;2023-08-06T04:20:45;12.25;;;5.93;;
45408;SDS011;31162;51.076;3.784;2023-08-06T04:23:11;15.15;;;5.18;;
45408;SDS011;31162;51.076;3.784;2023-08-06T04:25:38;11.57;;;4.75;;
45408;SDS011;31162;51.076;3.784;2023-08-06T04:28:03;12.60;;;4.95;;
45408;SDS011;31162;51.076;3.784;2023-08-06T04:30:29;12.82;;;4.95;;
45408;SDS011;31162;51.076;3.784;2023-08-06T04:32:56;11.38;;;4.10;;
45408;SDS011;31162;51.076;3.784;2023-08-06T04:35:22;13.55;;;4.13;;
45408;SDS011;31162;51.076;3.784;2023-08-06T04:37:47;9.73;;;3.95;;
45408;SDS011;31162;51.076;3.784;2023-08-06T04:40:13;8.50;;;3.60;;
45408;SDS011;31162;51.076;3.784;2023-08-06T04:42:39;13.02;;;4.50;;
45408;SDS011;31162;51.076;3.784;2023-08-06T04:45:04;9.23;;;4.13;;
45408;SDS011;31162;51.076;3.784;2023-08-06T04:47:30;9.18;;;3.75;;
45408;SDS011;31162;51.076;3.784;2023-08-06T04:49:56;8.13;;;3.80;;
45408;SDS011;31162;51.076;3.784;2023-08-06T04:52:22;10.05;;;3.85;;
45408;SDS011;31162;51.076;3.784;2023-08-06T04:54:47;12.20;;;4.22;;
45408;SDS011;31162;51.076;3.784;2023-08-06T04:57:13;18.65;;;8.90;;
45408;SDS011;31162;51.076;3.784;2023-08-06T04:59:38;11.10;;;5.57;;
45408;SDS011;31162;51.076;3.784;2023-08-06T05:02:04;10.45;;;4.50;;
45408;SDS011;31162;51.076;3.784;2023-08-06T05:04:30;10.85;;;4.53;;
45408;SDS011;31162;51.076;3.784;2023-08-06T05:06:56;9.02;;;4.10;;
45408;SDS011;31162;51.076;3.784;2023-08-06T05:09:21;8.70;;;4.65;;
45408;SDS011;31162;51.076;3.784;2023-08-06T05:11:49;16.63;;;5.10;;
45408;SDS011;31162;51.076;3.784;2023-08-06T05:14:14;13.25;;;4.90;;
45408;SDS011;31162;51.076;3.784;2023-08-06T05:16:40;10.85;;;4.43;;
45408;SDS011;31162;51.076;3.784;2023-08-06T05:19:06;16.45;;;5.13;;
45408;SDS011;31162;51.076;3.784;2023-08-06T05:21:33;12.02;;;4.75;;
45408;SDS011;31162;51.076;3.784;2023-08-06T05:23:59;9.77;;;4.55;;
45408;SDS011;31162;51.076;3.784;2023-08-06T05:26:25;9.25;;;4.40;;
45408;SDS011;31162;51.076;3.784;2023-08-06T05:28:50;8.95;;;4.35;;
45408;SDS011;31162;51.076;3.784;2023-08-06T05:31:16;8.40;;;4.47;;
45408;SDS011;31162;51.076;3.784;2023-08-06T05:33:41;12.02;;;5.07;;
45408;SDS011;31162;51.076;3.784;2023-08-06T05:36:07;11.82;;;4.97;;
45408;SDS011;31162;51.076;3.784;2023-08-06T05:38:33;12.68;;;5.35;;
45408;SDS011;31162;51.076;3.784;2023-08-06T05:40:58;17.67;;;8.50;;
45408;SDS011;31162;51.076;3.784;2023-08-06T05:43:24;14.45;;;4.57;;
45408;SDS011;31162;51.076;3.784;2023-08-06T05:45:50;10.02;;;4.45;;
45408;SDS011;31162;51.076;3.784;2023-08-06T05:48:16;12.07;;;4.35;;
45408;SDS011;31162;51.076;3.784;2023-08-06T05:50:41;11.05;;;4.13;;
45408;SDS011;31162;51.076;3.784;2023-08-06T05:53:07;12.00;;;3.95;;
45408;SDS011;31162;51.076;3.784;2023-08-06T05:55:33;6.88;;;2.90;;
45408;SDS011;31162;51.076;3.784;2023-08-06T05:57:59;5.78;;;2.20;;
45408;SDS011;31162;51.076;3.784;2023-08-06T06:00:25;5.13;;;1.88;;
45408;SDS011;31162;51.076;3.784;2023-08-06T06:02:50;6.55;;;1.65;;
45408;SDS011;31162;51.076;3.784;2023-08-06T06:05:16;18.25;;;13.70;;
45408;SDS011;31162;51.076;3.784;2023-08-06T06:07:42;6.72;;;2.50;;
45408;SDS011;31162;51.076;3.784;2023-08-06T06:10:10;10.05;;;2.05;;
45408;SDS011;31162;51.076;3.784;2023-08-06T06:12:37;7.32;;;1.67;;
45408;SDS011;31162;51.076;3.784;2023-08-06T06:15:04;9.30;;;2.17;;
45408;SDS011;31162;51.076;3.784;2023-08-06T06:17:30;8.98;;;1.58;;
45408;SDS011;31162;51.076;3.784;2023-08-06T06:19:56;7.47;;;1.20;;
45408;SDS011;31162;51.076;3.784;2023-08-06T06:22:21;11.52;;;1.85;;
45408;SDS011;31162;51.076;3.784;2023-08-06T06:24:47;9.85;;;1.58;;
45408;SDS011;31162;51.076;3.784;2023-08-06T06:27:13;6.75;;;1.38;;
45408;SDS011;31162;51.076;3.784;2023-08-06T06:29:38;9.00;;;2.63;;
45408;SDS011;31162;51.076;3.784;2023-08-06T06:32:04;9.27;;;3.20;;
45408;SDS011;31162;51.076;3.784;2023-08-06T06:34:30;5.15;;;1.33;;
45408;SDS011;31162;51.076;3.784;2023-08-06T06:36:56;7.78;;;1.30;;
45408;SDS011;31162;51.076;3.784;2023-08-06T06:39:21;8.10;;;1.65;;
45408;SDS011;31162;51.076;3.784;2023-08-06T06:41:47;7.57;;;1.50;;
45408;SDS011;31162;51.076;3.784;2023-08-06T06:44:13;7.40;;;1.63;;
45408;SDS011;31162;51.076;3.784;2023-08-06T06:46:38;9.90;;;1.85;;
45408;SDS011;31162;51.076;3.784;2023-08-06T06:49:04;10.63;;;1.73;;
45408;SDS011;31162;51.076;3.784;2023-08-06T06:51:30;7.88;;;1.55;;
45408;SDS011;31162;51.076;3.784;2023-08-06T06:53:56;9.57;;;1.30;;
45408;SDS011;31162;51.076;3.784;2023-08-06T06:56:22;7.75;;;1.38;;
45408;SDS011;31162;51.076;3.784;2023-08-06T06:58:48;7.93;;;1.70;;
45408;SDS011;31162;51.076;3.784;2023-08-06T07:01:14;12.23;;;1.75;;
45408;SDS011;31162;51.076;3.784;2023-08-06T07:03:42;8.82;;;1.83;;
45408;SDS011;31162;51.076;3.784;2023-08-06T07:06:07;9.85;;;2.15;;
45408;SDS011;31162;51.076;3.784;2023-08-06T07:08:33;10.18;;;2.15;;
45408;SDS011;31162;51.076;3.784;2023-08-06T07:11:01;9.13;;;2.35;;
45408;SDS011;31162;51.076;3.784;2023-08-06T07:13:28;6.95;;;1.90;;
45408;SDS011;31162;51.076;3.784;2023-08-06T07:15:54;9.30;;;2.28;;
45408;SDS011;31162;51.076;3.784;2023-08-06T07:18:20;6.82;;;1.67;;
45408;SDS011;31162;51.076;3.784;2023-08-06T07:20:52;7.03;;;1.88;;
45408;SDS011;31162;51.076;3.784;2023-08-06T07:23:20;9.00;;;1.50;;
45408;SDS011;31162;51.076;3.784;2023-08-06T07:25:47;3.97;;;1.35;;
45408;SDS011;31162;51.076;3.784;2023-08-06T07:28:13;5.03;;;1.45;;
45408;SDS011;31162;51.076;3.784;2023-08-06T07:30:39;7.35;;;1.60;;
45408;SDS011;31162;51.076;3.784;2023-08-06T07:33:06;7.35;;;1.50;;
45408;SDS011;31162;51.076;3.784;2023-08-06T07:35:31;5.85;;;1.50;;
45408;SDS011;31162;51.076;3.784;2023-08-06T07:37:57;9.32;;;1.83;;
45408;SDS011;31162;51.076;3.784;2023-08-06T07:40:23;7.95;;;1.50;;
45408;SDS011;31162;51.076;3.784;2023-08-06T07:42:49;5.63;;;1.40;;
45408;SDS011;31162;51.076;3.784;2023-08-06T07:45:14;5.45;;;1.70;;
45408;SDS011;31162;51.076;3.784;2023-08-06T07:47:40;11.02;;;2.28;;
45408;SDS011;31162;51.076;3.784;2023-08-06T07:50:07;4.50;;;1.55;;
45408;SDS011;31162;51.076;3.784;2023-08-06T07:52:33;3.55;;;1.10;;
45408;SDS011;31162;51.076;3.784;2023-08-06T07:54:59;8.20;;;1.70;;
45408;SDS011;31162;51.076;3.784;2023-08-06T07:57:30;7.00;;;2.03;;
45408;SDS011;31162;51.076;3.784;2023-08-06T07:59:56;6.78;;;1.73;;
45408;SDS011;31162;51.076;3.784;2023-08-06T08:02:22;7.78;;;1.70;;
45408;SDS011;31162;51.076;3.784;2023-08-06T08:04:48;7.03;;;1.67;;
45408;SDS011;31162;51.076;3.784;2023-08-06T08:07:14;7.05;;;1.67;;
45408;SDS011;31162;51.076;3.784;2023-08-06T08:09:39;11.65;;;2.35;;
45408;SDS011;31162;51.076;3.784;2023-08-06T08:12:05;8.27;;;1.55;;
45408;SDS011;31162;51.076;3.784;2023-08-06T08:14:31;10.55;;;2.40;;
45408;SDS011;31162;51.076;3.784;2023-08-06T08:17:04;8.93;;;2.17;;
45408;SDS011;31162;51.076;3.784;2023-08-06T08:19:30;9.90;;;2.40;;
45408;SDS011;31162;51.076;3.784;2023-08-06T08:21:57;11.13;;;1.90;;
45408;SDS011;31162;51.076;3.784;2023-08-06T08:24:22;9.70;;;2.20;;
45408;SDS011;31162;51.076;3.784;2023-08-06T08:26:51;8.30;;;1.80;;
45408;SDS011;31162;51.076;3.784;2023-08-06T08:29:18;10.70;;;2.13;;
45408;SDS011;31162;51.076;3.784;2023-08-06T08:31:45;6.25;;;1.83;;
45408;SDS011;31162;51.076;3.784;2023-08-06T08:34:14;10.65;;;1.95;;
45408;SDS011;31162;51.076;3.784;2023-08-06T08:36:40;7.88;;;1.85;;
45408;SDS011;31162;51.076;3.784;2023-08-06T08:39:05;9.10;;;2.00;;
45408;SDS011;31162;51.076;3.784;2023-08-06T08:41:31;14.43;;;7.20;;
45408;SDS011;31162;51.076;3.784;2023-08-06T08:43:58;8.18;;;2.10;;
45408;SDS011;31162;51.076;3.784;2023-08-06T08:46:34;9.23;;;1.90;;
45408;SDS011;31162;51.076;3.784;2023-08-06T08:49:04;6.13;;;1.90;;
45408;SDS011;31162;51.076;3.784;2023-08-06T08:51:30;5.75;;;1.60;;
45408;SDS011;31162;51.076;3.784;2023-08-06T08:53:57;8.05;;;2.10;;
45408;SDS011;31162;51.076;3.784;2023-08-06T08:56:23;11.52;;;2.08;;
45408;SDS011;31162;51.076;3.784;2023-08-06T08:58:50;8.07;;;1.90;;
45408;SDS011;31162;51.076;3.784;2023-08-06T09:01:20;7.35;;;1.92;;
45408;SDS011;31162;51.076;3.784;2023-08-06T09:03:47;8.73;;;1.85;;
45408;SDS011;31162;51.076;3.784;2023-08-06T09:06:12;9.98;;;1.83;;
45408;SDS011;31162;51.076;3.784;2023-08-06T09:08:44;8.32;;;1.92;;
45408;SDS011;31162;51.076;3.784;2023-08-06T09:11:18;8.93;;;1.73;;
45408;SDS011;31162;51.076;3.784;2023-08-06T09:13:45;8.20;;;2.05;;
45408;SDS011;31162;51.076;3.784;2023-08-06T09:16:12;5.32;;;1.85;;
45408;SDS011;31162;51.076;3.784;2023-08-06T09:18:38;5.90;;;1.50;;
45408;SDS011;31162;51.076;3.784;2023-08-06T09:21:05;7.03;;;1.92;;
45408;SDS011;31162;51.076;3.784;2023-08-06T09:23:31;7.20;;;1.70;;
45408;SDS011;31162;51.076;3.784;2023-08-06T09:25:58;6.15;;;1.50;;
45408;SDS011;31162;51.076;3.784;2023-08-06T09:28:25;7.00;;;1.50;;
45408;SDS011;31162;51.076;3.784;2023-08-06T09:31:03;8.15;;;1.63;;
45408;SDS011;31162;51.076;3.784;2023-08-06T09:33:29;6.35;;;1.25;;
45408;SDS011;31162;51.076;3.784;2023-08-06T09:35:55;6.13;;;1.77;;
45408;SDS011;31162;51.076;3.784;2023-08-06T09:38:20;7.68;;;1.40;;
45408;SDS011;31162;51.076;3.784;2023-08-06T09:40:46;4.53;;;1.42;;
45408;SDS011;31162;51.076;3.784;2023-08-06T09:43:12;8.10;;;1.90;;
45408;SDS011;31162;51.076;3.784;2023-08-06T09:45:39;6.53;;;1.77;;
45408;SDS011;31162;51.076;3.784;2023-08-06T09:48:05;8.25;;;1.85;;
45408;SDS011;31162;51.076;3.784;2023-08-06T09:50:33;8.02;;;1.50;;
45408;SDS011;31162;51.076;3.784;2023-08-06T09:53:02;7.85;;;2.08;;
45408;SDS011;31162;51.076;3.784;2023-08-06T09:55:31;8.77;;;2.05;;
45408;SDS011;31162;51.076;3.784;2023-08-06T09:57:58;8.27;;;2.10;;
45408;SDS011;31162;51.076;3.784;2023-08-06T10:00:24;7.15;;;2.33;;
45408;SDS011;31162;51.076;3.784;2023-08-06T10:02:51;9.10;;;2.13;;
45408;SDS011;31162;51.076;3.784;2023-08-06T10:05:21;9.38;;;1.90;;
45408;SDS011;31162;51.076;3.784;2023-08-06T10:07:48;8.48;;;2.10;;
45408;SDS011;31162;51.076;3.784;2023-08-06T10:10:16;7.15;;;2.33;;
45408;SDS011;31162;51.076;3.784;2023-08-06T10:12:51;8.05;;;2.00;;
45408;SDS011;31162;51.076;3.784;2023-08-06T10:15:21;9.30;;;1.98;;
45408;SDS011;31162;51.076;3.784;2023-08-06T10:17:51;5.63;;;2.17;;
45408;SDS011;31162;51.076;3.784;2023-08-06T10:20:20;5.40;;;1.75;;
45408;SDS011;31162;51.076;3.784;2023-08-06T10:22:59;9.98;;;1.98;;
45408;SDS011;31162;51.076;3.784;2023-08-06T10:25:32;6.53;;;2.03;;
45408;SDS011;31162;51.076;3.784;2023-08-06T10:27:59;3.97;;;1.67;;
45408;SDS011;31162;51.076;3.784;2023-08-06T10:30:32;4.65;;;1.55;;
45408;SDS011;31162;51.076;3.784;2023-08-06T10:33:02;5.15;;;1.60;;
45408;SDS011;31162;51.076;3.784;2023-08-06T10:35:29;9.37;;;2.27;;
45408;SDS011;31162;51.076;3.784;2023-08-06T10:40:31;6.93;;;1.83;;
45408;SDS011;31162;51.076;3.784;2023-08-06T10:43:01;7.70;;;1.67;;
45408;SDS011;31162;51.076;3.784;2023-08-06T10:45:28;4.60;;;1.70;;
45408;SDS011;31162;51.076;3.784;2023-08-06T10:47:55;6.00;;;1.55;;
45408;SDS011;31162;51.076;3.784;2023-08-06T10:50:23;7.90;;;1.80;;
45408;SDS011;31162;51.076;3.784;2023-08-06T10:52:50;5.40;;;1.65;;
45408;SDS011;31162;51.076;3.784;2023-08-06T10:55:26;6.03;;;1.23;;
45408;SDS011;31162;51.076;3.784;2023-08-06T10:57:52;7.90;;;1.80;;
45408;SDS011;31162;51.076;3.784;2023-08-06T11:00:20;6.70;;;1.73;;
45408;SDS011;31162;51.076;3.784;2023-08-06T11:02:49;8.20;;;2.10;;
45408;SDS011;31162;51.076;3.784;2023-08-06T11:05:15;8.05;;;2.25;;
45408;SDS011;31162;51.076;3.784;2023-08-06T11:07:42;7.38;;;2.10;;
45408;SDS011;31162;51.076;3.784;2023-08-06T11:10:08;8.63;;;2.15;;
45408;SDS011;31162;51.076;3.784;2023-08-06T11:12:36;6.55;;;2.17;;
45408;SDS011;31162;51.076;3.784;2023-08-06T11:15:02;7.60;;;1.52;;
45408;SDS011;31162;51.076;3.784;2023-08-06T11:17:29;6.60;;;1.55;;
45408;SDS011;31162;51.076;3.784;2023-08-06T11:19:58;5.47;;;1.63;;
45408;SDS011;31162;51.076;3.784;2023-08-06T11:22:25;5.10;;;1.58;;
45408;SDS011;31162;51.076;3.784;2023-08-06T11:24:51;7.35;;;1.75;;
45408;SDS011;31162;51.076;3.784;2023-08-06T11:27:18;6.28;;;1.60;;
45408;SDS011;31162;51.076;3.784;2023-08-06T11:29:44;7.05;;;1.73;;
45408;SDS011;31162;51.076;3.784;2023-08-06T11:32:10;7.43;;;1.77;;
45408;SDS011;31162;51.076;3.784;2023-08-06T11:34:38;6.55;;;1.80;;
45408;SDS011;31162;51.076;3.784;2023-08-06T11:37:05;7.35;;;1.75;;
45408;SDS011;31162;51.076;3.784;2023-08-06T11:39:34;7.25;;;2.03;;
45408;SDS011;31162;51.076;3.784;2023-08-06T11:42:04;6.57;;;2.13;;
45408;SDS011;31162;51.076;3.784;2023-08-06T11:44:32;8.52;;;1.83;;
45408;SDS011;31162;51.076;3.784;2023-08-06T11:46:59;6.22;;;1.80;;
45408;SDS011;31162;51.076;3.784;2023-08-06T11:49:49;5.43;;;1.45;;
45408;SDS011;31162;51.076;3.784;2023-08-06T11:52:21;12.00;;;1.80;;
45408;SDS011;31162;51.076;3.784;2023-08-06T11:55:01;6.55;;;1.40;;
45408;SDS011;31162;51.076;3.784;2023-08-06T11:57:32;5.38;;;1.48;;
45408;SDS011;31162;51.076;3.784;2023-08-06T12:02:31;7.55;;;1.67;;
45408;SDS011;31162;51.076;3.784;2023-08-06T12:04:59;8.07;;;1.60;;
45408;SDS011;31162;51.076;3.784;2023-08-06T12:07:30;5.50;;;1.33;;
45408;SDS011;31162;51.076;3.784;2023-08-06T12:09:57;7.13;;;1.70;;
45408;SDS011;31162;51.076;3.784;2023-08-06T12:12:24;5.85;;;1.65;;
45408;SDS011;31162;51.076;3.784;2023-08-06T12:14:49;5.50;;;1.48;;
45408;SDS011;31162;51.076;3.784;2023-08-06T12:17:15;4.32;;;1.23;;
45408;SDS011;31162;51.076;3.784;2023-08-06T12:19:41;4.90;;;1.42;;
45408;SDS011;31162;51.076;3.784;2023-08-06T12:22:06;8.02;;;1.80;;
45408;SDS011;31162;51.076;3.784;2023-08-06T12:24:33;4.78;;;1.58;;
45408;SDS011;31162;51.076;3.784;2023-08-06T12:26:59;9.82;;;1.63;;
45408;SDS011;31162;51.076;3.784;2023-08-06T12:29:27;6.28;;;1.20;;
45408;SDS011;31162;51.076;3.784;2023-08-06T12:31:53;7.15;;;1.67;;
45408;SDS011;31162;51.076;3.784;2023-08-06T12:34:19;8.00;;;1.50;;
45408;SDS011;31162;51.076;3.784;2023-08-06T12:36:46;7.55;;;1.65;;
45408;SDS011;31162;51.076;3.784;2023-08-06T12:39:12;6.60;;;1.40;;
45408;SDS011;31162;51.076;3.784;2023-08-06T12:41:38;4.68;;;1.33;;
45408;SDS011;31162;51.076;3.784;2023-08-06T12:44:03;7.03;;;1.55;;
45408;SDS011;31162;51.076;3.784;2023-08-06T12:46:32;8.77;;;1.42;;
45408;SDS011;31162;51.076;3.784;2023-08-06T12:48:58;5.47;;;1.52;;
45408;SDS011;31162;51.076;3.784;2023-08-06T12:51:24;8.43;;;1.88;;
45408;SDS011;31162;51.076;3.784;2023-08-06T12:53:50;7.32;;;1.60;;
45408;SDS011;31162;51.076;3.784;2023-08-06T12:56:16;7.03;;;1.60;;
45408;SDS011;31162;51.076;3.784;2023-08-06T12:58:41;10.50;;;1.60;;
45408;SDS011;31162;51.076;3.784;2023-08-06T13:01:07;9.57;;;1.75;;
45408;SDS011;31162;51.076;3.784;2023-08-06T13:03:33;7.55;;;2.08;;
45408;SDS011;31162;51.076;3.784;2023-08-06T13:05:59;7.57;;;1.90;;
45408;SDS011;31162;51.076;3.784;2023-08-06T13:08:24;7.32;;;2.15;;
45408;SDS011;31162;51.076;3.784;2023-08-06T13:10:50;6.47;;;1.75;;
45408;SDS011;31162;51.076;3.784;2023-08-06T13:13:15;13.82;;;10.18;;
45408;SDS011;31162;51.076;3.784;2023-08-06T13:15:41;6.90;;;1.38;;
45408;SDS011;31162;51.076;3.784;2023-08-06T13:18:07;5.22;;;1.42;;
45408;SDS011;31162;51.076;3.784;2023-08-06T13:20:32;6.47;;;1.40;;
45408;SDS011;31162;51.076;3.784;2023-08-06T13:22:58;6.60;;;1.38;;
45408;SDS011;31162;51.076;3.784;2023-08-06T13:25:26;6.50;;;1.30;;
45408;SDS011;31162;51.076;3.784;2023-08-06T13:27:53;7.95;;;1.35;;
45408;SDS011;31162;51.076;3.784;2023-08-06T13:30:19;5.88;;;1.65;;
45408;SDS011;31162;51.076;3.784;2023-08-06T13:32:45;6.65;;;1.40;;
45408;SDS011;31162;51.076;3.784;2023-08-06T13:35:11;5.45;;;1.35;;
45408;SDS011;31162;51.076;3.784;2023-08-06T13:37:37;6.68;;;1.50;;
45408;SDS011;31162;51.076;3.784;2023-08-06T13:40:03;8.00;;;1.70;;
45408;SDS011;31162;51.076;3.784;2023-08-06T13:42:30;11.30;;;1.80;;
45408;SDS011;31162;51.076;3.784;2023-08-06T13:44:57;4.50;;;1.20;;
45408;SDS011;31162;51.076;3.784;2023-08-06T13:47:28;5.78;;;1.25;;
45408;SDS011;31162;51.076;3.784;2023-08-06T13:49:54;5.05;;;1.20;;
45408;SDS011;31162;51.076;3.784;2023-08-06T13:52:20;6.15;;;1.45;;
45408;SDS011;31162;51.076;3.784;2023-08-06T13:54:46;7.50;;;1.80;;
45408;SDS011;31162;51.076;3.784;2023-08-06T13:57:11;5.80;;;1.38;;
45408;SDS011;31162;51.076;3.784;2023-08-06T13:59:42;5.30;;;1.50;;
45408;SDS011;31162;51.076;3.784;2023-08-06T14:02:08;6.28;;;1.42;;
45408;SDS011;31162;51.076;3.784;2023-08-06T14:04:34;5.43;;;1.38;;
45408;SDS011;31162;51.076;3.784;2023-08-06T14:07:00;6.78;;;1.63;;
45408;SDS011;31162;51.076;3.784;2023-08-06T14:09:26;50.08;;;43.53;;
45408;SDS011;31162;51.076;3.784;2023-08-06T14:11:51;10.73;;;5.90;;
45408;SDS011;31162;51.076;3.784;2023-08-06T14:14:17;5.60;;;1.48;;
45408;SDS011;31162;51.076;3.784;2023-08-06T14:16:50;5.05;;;1.42;;
45408;SDS011;31162;51.076;3.784;2023-08-06T14:19:19;7.00;;;1.65;;
45408;SDS011;31162;51.076;3.784;2023-08-06T14:21:45;9.68;;;1.67;;
45408;SDS011;31162;51.076;3.784;2023-08-06T14:24:11;3.70;;;1.33;;
45408;SDS011;31162;51.076;3.784;2023-08-06T14:26:37;4.05;;;1.15;;
45408;SDS011;31162;51.076;3.784;2023-08-06T14:29:03;4.72;;;1.30;;
45408;SDS011;31162;51.076;3.784;2023-08-06T14:31:28;5.70;;;1.17;;
45408;SDS011;31162;51.076;3.784;2023-08-06T14:33:54;5.65;;;1.60;;
45408;SDS011;31162;51.076;3.784;2023-08-06T14:36:20;7.90;;;1.55;;
45408;SDS011;31162;51.076;3.784;2023-08-06T14:38:46;4.65;;;1.02;;
45408;SDS011;31162;51.076;3.784;2023-08-06T14:41:12;4.90;;;1.42;;
45408;SDS011;31162;51.076;3.784;2023-08-06T14:43:37;5.40;;;1.60;;
45408;SDS011;31162;51.076;3.784;2023-08-06T14:46:03;6.40;;;1.75;;
45408;SDS011;31162;51.076;3.784;2023-08-06T14:48:29;5.55;;;1.55;;